Time;durP1;ratioP1;P1;durP2;ratioP2;P2;SDS_P1;SDS_P2;PMS_P1;PMS_P2;Temp;Humidity;BMP_temperature;BMP_pressure;BME280_temperature;BME280_humidity;BME280_pressure;Samples;Min_cycle;Max_cycle;Signal;HPM_P1;HPM_P2
2021/03/01 00:01:11;;;;;;;0.00;0.00;;;15.10;70.50;;;;;;4214851;28;20060;-43
2021/03/01 00:03:33;;;;;;;0.00;0.00;;;15.10;70.50;;;;;;4214877;28;20834;-47
2021/03/01 00:05:54;;;;;;;0.10;0.10;;;15.10;70.50;;;;;;4214740;28;20093;-44
2021/03/01 00:08:14;;;;;;;0.00;0.00;;;15.10;70.50;;;;;;4213839;28;20052;-43
2021/03/01 00:10:38;;;;;;;0.00;0.00;;;15.10;70.50;;;;;;4214596;28;20055;-43
2021/03/01 00:12:59;;;;;;;0.10;0.10;;;15.10;70.50;;;;;;4214531;28;20498;-43
2021/03/01 00:15:22;;;;;;;0.00;0.00;;;15.00;70.50;;;;;;4213721;28;20531;-44
2021/03/01 00:17:44;;;;;;;0.00;0.00;;;15.00;70.50;;;;;;4213941;28;20418;-43
2021/03/01 00:20:07;;;;;;;0.10;0.10;;;15.00;70.50;;;;;;4214792;28;20160;-45
2021/03/01 00:22:28;;;;;;;0.10;0.10;;;15.00;70.60;;;;;;4214627;28;20048;-43
2021/03/01 00:24:49;;;;;;;0.00;0.00;;;15.00;70.60;;;;;;4214458;28;20584;-43
2021/03/01 00:27:11;;;;;;;0.38;0.38;;;15.00;70.70;;;;;;4214528;28;20056;-44
2021/03/01 00:29:32;;;;;;;0.00;0.00;;;14.90;70.80;;;;;;4214518;28;20054;-43
2021/03/01 00:31:53;;;;;;;0.00;0.00;;;14.90;70.80;;;;;;4214286;28;20056;-43
2021/03/01 00:34:14;;;;;;;0.08;0.08;;;14.90;70.90;;;;;;4214230;28;20513;-43
2021/03/01 00:36:34;;;;;;;0.00;0.00;;;14.90;70.90;;;;;;4197706;28;20146;-43
2021/03/01 00:38:55;;;;;;;0.00;0.00;;;14.90;70.90;;;;;;4197295;28;20059;-43
2021/03/01 00:41:16;;;;;;;0.00;0.00;;;14.80;71.00;;;;;;4197694;28;20109;-43
2021/03/01 00:43:38;;;;;;;0.30;0.30;;;14.90;71.10;;;;;;4197837;28;20082;-43
2021/03/01 00:45:59;;;;;;;0.55;0.55;;;14.80;71.10;;;;;;4199588;28;20640;-43
2021/03/01 00:48:20;;;;;;;0.00;0.00;;;14.80;71.20;;;;;;4203243;28;20060;-43
2021/03/01 00:50:41;;;;;;;0.10;0.10;;;14.80;71.20;;;;;;4213242;28;20505;-43
2021/03/01 00:53:02;;;;;;;0.00;0.00;;;14.80;71.30;;;;;;4212953;28;20090;-51
2021/03/01 00:55:23;;;;;;;0.00;0.00;;;14.80;71.40;;;;;;4214032;28;20101;-48
2021/03/01 00:57:47;;;;;;;0.10;0.10;;;14.80;71.40;;;;;;4214214;28;20131;-46
2021/03/01 01:00:16;;;;;;;0.00;0.00;;;14.70;71.30;;;;;;4196302;28;20052;-42
2021/03/01 01:02:47;;;;;;;0.00;0.00;;;14.70;71.40;;;;;;4197081;28;20101;-45
2021/03/01 01:05:28;;;;;;;0.00;0.00;;;14.70;71.40;;;;;;4208230;28;20512;-45
2021/03/01 01:07:49;;;;;;;;;;;14.70;71.40;;;;;;4197809;28;20056;-50
2021/03/01 01:10:11;;;;;;;0.00;0.00;;;14.70;71.50;;;;;;4207796;28;19928;-44
2021/03/01 01:12:32;;;;;;;0.00;0.00;;;14.70;71.50;;;;;;4213657;28;20056;-43
2021/03/01 01:14:53;;;;;;;0.32;0.32;;;14.70;71.50;;;;;;4213791;28;20129;-45
2021/03/01 01:17:15;;;;;;;0.10;0.10;;;14.70;71.50;;;;;;4213330;28;20097;-44
2021/03/01 01:19:36;;;;;;;0.00;0.00;;;14.70;71.50;;;;;;4213683;28;20131;-43
2021/03/01 01:21:57;;;;;;;0.00;0.00;;;14.70;71.50;;;;;;4213743;28;20070;-45
2021/03/01 01:24:17;;;;;;;0.00;0.00;;;14.70;71.50;;;;;;4213387;28;20051;-43
2021/03/01 01:26:39;;;;;;;6.60;0.85;;;14.70;71.60;;;;;;4213413;28;20810;-43
2021/03/01 01:29:00;;;;;;;0.00;0.00;;;14.70;71.50;;;;;;4213676;28;20525;-43
2021/03/01 01:31:20;;;;;;;0.00;0.00;;;14.70;71.60;;;;;;4213432;28;20067;-45
2021/03/01 01:33:43;;;;;;;0.00;0.00;;;14.70;71.60;;;;;;4213466;28;20052;-42
2021/03/01 01:36:04;;;;;;;0.10;0.10;;;14.70;71.60;;;;;;4212362;28;20133;-43
2021/03/01 01:38:40;;;;;;;0.00;0.00;;;14.60;71.60;;;;;;4213892;28;20128;-44
2021/03/01 01:41:01;;;;;;;0.00;0.00;;;14.60;71.60;;;;;;4213412;28;20059;-42
2021/03/01 01:43:22;;;;;;;0.00;0.00;;;14.60;71.60;;;;;;4213390;28;20524;-43
2021/03/01 01:45:43;;;;;;;0.25;0.25;;;14.60;71.70;;;;;;4213056;28;20101;-42
2021/03/01 01:48:06;;;;;;;0.00;0.00;;;14.60;71.70;;;;;;4196523;28;20080;-47
2021/03/01 01:50:30;;;;;;;0.00;0.00;;;14.60;71.70;;;;;;4195785;28;20135;-48
2021/03/01 01:52:52;;;;;;;3.63;1.65;;;14.60;71.70;;;;;;4196236;28;20052;-43
2021/03/01 01:55:14;;;;;;;0.10;0.10;;;14.60;71.70;;;;;;4208527;28;20553;-44
2021/03/01 01:57:37;;;;;;;0.00;0.00;;;14.60;71.70;;;;;;4213098;28;20050;-43
2021/03/01 01:59:58;;;;;;;0.00;0.00;;;14.60;71.70;;;;;;4213107;28;20498;-43
2021/03/01 02:02:19;;;;;;;0.10;0.10;;;14.60;71.70;;;;;;4211949;28;20555;-45
2021/03/01 02:04:43;;;;;;;0.32;0.32;;;14.60;71.70;;;;;;4212724;28;20079;-44
2021/03/01 02:07:11;;;;;;;0.10;0.10;;;14.60;71.70;;;;;;4198953;28;20388;-46
2021/03/01 02:10:00;;;;;;;0.00;0.00;;;14.60;71.70;;;;;;4212766;28;20048;-43
2021/03/01 02:12:30;;;;;;;0.05;0.05;;;14.60;71.70;;;;;;4213096;28;20486;-44
2021/03/01 02:15:01;;;;;;;0.00;0.00;;;14.50;71.70;;;;;;4212721;28;20062;-44
2021/03/01 02:17:22;;;;;;;0.00;0.00;;;14.50;71.70;;;;;;4210496;28;20628;-43
2021/03/01 02:19:43;;;;;;;0.00;0.00;;;14.50;71.70;;;;;;4212786;28;20058;-43
2021/03/01 02:22:05;;;;;;;0.00;0.00;;;14.50;71.70;;;;;;4212368;28;20128;-44
2021/03/01 02:24:30;;;;;;;0.10;0.10;;;14.50;71.70;;;;;;4212506;28;20711;-43
2021/03/01 02:26:53;;;;;;;0.00;0.00;;;14.50;71.80;;;;;;4195954;28;20079;-43
2021/03/01 02:29:18;;;;;;;0.00;0.00;;;14.50;71.70;;;;;;4195776;28;20048;-43
2021/03/01 02:31:44;;;;;;;0.00;0.00;;;14.60;71.80;;;;;;4195945;28;20056;-43
2021/03/01 02:34:08;;;;;;;0.00;0.00;;;14.70;71.30;;;;;;4198559;28;20144;-44
2021/03/01 02:36:33;;;;;;;0.10;0.10;;;14.80;70.70;;;;;;4212553;28;20109;-43
2021/03/01 02:38:57;;;;;;;0.70;0.70;;;14.90;70.30;;;;;;4212356;28;20055;-44
2021/03/01 02:41:19;;;;;;;0.35;0.35;;;14.90;69.80;;;;;;4212425;28;20137;-44
2021/03/01 02:43:40;;;;;;;;;;;15.00;69.60;;;;;;4212866;28;20913;-43
2021/03/01 02:46:02;;;;;;;0.00;0.00;;;15.00;69.40;;;;;;4212037;28;19937;-44
2021/03/01 02:48:24;;;;;;;0.00;0.00;;;15.00;69.30;;;;;;4212402;28;20055;-44
2021/03/01 02:50:47;;;;;;;0.00;0.00;;;15.10;69.30;;;;;;4212262;28;20057;-43
2021/03/01 02:53:08;;;;;;;0.00;0.00;;;15.10;69.20;;;;;;4212274;28;20059;-45
2021/03/01 02:55:30;;;;;;;0.05;0.05;;;15.00;69.20;;;;;;4212108;28;20075;-44
2021/03/01 02:58:03;;;;;;;0.10;0.10;;;15.00;69.10;;;;;;4212405;28;20063;-43
2021/03/01 03:00:25;;;;;;;0.00;0.00;;;14.90;69.40;;;;;;4212205;28;20131;-45
2021/03/01 03:02:46;;;;;;;;;;;14.90;69.70;;;;;;4212733;28;20117;-44
2021/03/01 03:05:08;;;;;;;0.00;0.00;;;14.80;70.00;;;;;;4211475;28;19977;-44
2021/03/01 03:07:31;;;;;;;0.00;0.00;;;14.80;70.30;;;;;;4212130;28;20056;-43
2021/03/01 03:09:52;;;;;;;0.08;0.08;;;14.70;70.30;;;;;;4211696;28;20460;-43
2021/03/01 03:12:16;;;;;;;0.00;0.00;;;14.60;70.60;;;;;;4212141;28;20048;-43
2021/03/01 03:14:39;;;;;;;0.00;0.00;;;14.60;70.70;;;;;;4212268;28;20054;-44
2021/03/01 03:17:01;;;;;;;0.22;0.22;;;14.70;70.70;;;;;;4210657;28;20052;-44
2021/03/01 03:19:22;;;;;;;0.00;0.00;;;14.80;70.20;;;;;;4211999;28;20056;-47
2021/03/01 03:21:45;;;;;;;0.00;0.00;;;14.90;69.60;;;;;;4212161;28;20058;-43
2021/03/01 03:24:07;;;;;;;0.00;0.00;;;15.00;69.50;;;;;;4211722;28;20048;-46
2021/03/01 03:26:28;;;;;;;0.00;0.00;;;15.00;69.30;;;;;;4212216;28;20051;-46
2021/03/01 03:28:50;;;;;;;0.00;0.00;;;15.00;70.00;;;;;;4212185;28;20418;-49
2021/03/01 03:31:11;;;;;;;0.30;0.30;;;15.10;69.00;;;;;;4212152;28;20063;-44
2021/03/01 03:33:32;;;;;;;0.03;0.03;;;15.10;68.70;;;;;;4211659;28;20135;-48
2021/03/01 03:35:54;;;;;;;;;;;15.20;68.50;;;;;;4212616;28;20785;-50
2021/03/01 03:38:21;;;;;;;0.00;0.00;;;15.20;68.40;;;;;;4212189;28;19958;-44
2021/03/01 03:40:45;;;;;;;0.10;0.10;;;15.30;68.20;;;;;;4195381;28;20052;-44
2021/03/01 03:43:07;;;;;;;0.68;0.40;;;15.20;68.10;;;;;;4195266;28;20044;-46
2021/03/01 03:45:31;;;;;;;;;;;15.20;68.10;;;;;;4210804;28;20052;-44
2021/03/01 03:47:54;;;;;;;0.60;0.60;;;15.20;68.10;;;;;;4210816;28;19978;-43
2021/03/01 03:50:20;;;;;;;0.15;0.15;;;15.10;68.30;;;;;;4211928;28;20052;-45
2021/03/01 03:52:45;;;;;;;0.00;0.00;;;15.10;68.20;;;;;;4211516;28;20105;-44
2021/03/01 03:55:10;;;;;;;0.55;0.55;;;15.10;68.40;;;;;;4211696;28;20467;-43
2021/03/01 03:57:37;;;;;;;0.00;0.00;;;15.10;68.60;;;;;;4211922;28;20177;-42
2021/03/01 03:59:59;;;;;;;0.08;0.08;;;15.00;68.60;;;;;;4211977;28;20052;-45
2021/03/01 04:02:25;;;;;;;1.10;1.00;;;15.20;68.30;;;;;;4211601;28;20059;-44
2021/03/01 04:04:47;;;;;;;0.10;0.10;;;15.30;67.60;;;;;;4211484;28;20058;-43
2021/03/01 04:07:09;;;;;;;0.30;0.30;;;15.40;67.10;;;;;;4211799;28;20517;-43
2021/03/01 04:09:31;;;;;;;0.00;0.00;;;15.50;66.80;;;;;;4210250;28;20048;-45
2021/03/01 04:11:52;;;;;;;0.00;0.00;;;15.50;66.70;;;;;;4211408;28;20486;-46
2021/03/01 04:14:19;;;;;;;0.00;0.00;;;15.50;66.60;;;;;;4214758;28;20144;-43
2021/03/01 04:16:43;;;;;;;0.20;0.20;;;15.60;66.30;;;;;;4214588;28;20051;-45
2021/03/01 04:19:07;;;;;;;0.10;0.10;;;15.70;65.90;;;;;;4214422;28;20063;-44
2021/03/01 04:21:29;;;;;;;0.00;0.00;;;15.70;65.60;;;;;;4214328;28;20101;-43
2021/03/01 04:23:53;;;;;;;0.20;0.20;;;15.70;65.60;;;;;;4214361;28;20044;-43
2021/03/01 04:26:15;;;;;;;0.17;0.17;;;15.70;65.60;;;;;;4214555;28;20473;-43
2021/03/01 04:28:36;;;;;;;0.10;0.10;;;15.70;66.40;;;;;;4214282;28;20059;-43
2021/03/01 04:31:02;;;;;;;0.80;0.13;;;15.80;65.40;;;;;;4214596;28;20055;-44
2021/03/01 04:33:26;;;;;;;0.47;0.47;;;15.80;65.30;;;;;;4214194;28;20055;-46
2021/03/01 04:35:49;;;;;;;0.08;0.08;;;15.80;65.40;;;;;;4214368;28;20074;-45
2021/03/01 04:38:10;;;;;;;0.00;0.00;;;15.70;65.50;;;;;;4214196;28;20052;-50
2021/03/01 04:40:31;;;;;;;0.10;0.10;;;15.60;65.70;;;;;;4214371;28;20060;-48
2021/03/01 04:42:54;;;;;;;0.65;0.65;;;15.60;65.90;;;;;;4214293;28;20083;-51
2021/03/01 04:45:16;;;;;;;0.05;0.05;;;15.60;66.00;;;;;;4214321;28;20159;-49
2021/03/01 04:47:41;;;;;;;0.28;0.28;;;15.50;66.30;;;;;;4197645;28;20049;-49
2021/03/01 04:50:03;;;;;;;0.00;0.00;;;15.40;66.50;;;;;;4197520;28;20052;-46
2021/03/01 04:52:26;;;;;;;0.50;0.50;;;15.50;66.50;;;;;;4197356;28;20553;-49
2021/03/01 04:54:48;;;;;;;0.00;0.00;;;15.70;65.70;;;;;;4210879;28;20050;-46
2021/03/01 04:57:12;;;;;;;0.40;0.40;;;15.90;64.90;;;;;;4213956;28;20055;-47
2021/03/01 04:59:37;;;;;;;1.05;0.98;;;16.10;64.40;;;;;;4214089;28;20131;-43
2021/03/01 05:01:58;;;;;;;0.00;0.00;;;16.10;64.10;;;;;;4213933;28;20052;-43
2021/03/01 05:04:19;;;;;;;0.00;0.00;;;16.10;64.00;;;;;;4213598;28;20044;-44
2021/03/01 05:06:41;;;;;;;0.00;0.00;;;16.10;63.90;;;;;;4213997;28;20579;-45
2021/03/01 05:09:03;;;;;;;0.68;0.68;;;16.10;63.90;;;;;;4213576;28;20504;-46
2021/03/01 05:11:31;;;;;;;0.00;0.00;;;16.00;64.00;;;;;;4213744;28;20048;-45
2021/03/01 05:13:52;;;;;;;0.00;0.00;;;16.00;64.20;;;;;;4213761;28;20047;-43
2021/03/01 05:16:13;;;;;;;0.00;0.00;;;15.90;64.40;;;;;;4213932;28;20098;-44
2021/03/01 05:18:34;;;;;;;0.00;0.00;;;15.90;64.60;;;;;;4212323;28;20134;-46
2021/03/01 05:20:56;;;;;;;0.10;0.10;;;15.80;64.80;;;;;;4213835;28;20426;-46
2021/03/01 05:23:17;;;;;;;0.75;0.38;;;15.70;65.10;;;;;;4212122;28;20105;-50
2021/03/01 05:25:39;;;;;;;3.53;2.15;;;15.60;65.40;;;;;;4212942;28;20487;-47
2021/03/01 05:28:04;;;;;;;0.00;0.00;;;15.60;65.70;;;;;;4213592;28;20131;-43
2021/03/01 05:30:25;;;;;;;0.00;0.00;;;15.50;65.90;;;;;;4213636;28;20059;-44
2021/03/01 05:32:47;;;;;;;0.00;0.00;;;15.40;66.10;;;;;;4213446;28;20075;-46
2021/03/01 05:35:09;;;;;;;0.38;0.38;;;15.40;66.40;;;;;;4213089;28;20048;-48
2021/03/01 05:37:30;;;;;;;0.08;0.08;;;15.40;66.50;;;;;;4213348;28;20052;-49
2021/03/01 05:39:51;;;;;;;0.05;0.05;;;15.40;66.50;;;;;;4213361;28;20078;-43
2021/03/01 05:42:17;;;;;;;0.00;0.00;;;15.50;66.40;;;;;;4213259;28;20058;-45
2021/03/01 05:44:38;;;;;;;0.00;0.00;;;15.70;65.60;;;;;;4213445;28;20048;-44
2021/03/01 05:47:02;;;;;;;0.35;0.35;;;15.90;64.80;;;;;;4213057;28;20047;-45
2021/03/01 05:49:23;;;;;;;3.08;1.60;;;16.10;64.10;;;;;;4213286;28;20109;-45
2021/03/01 05:51:49;;;;;;;;;;;16.20;63.80;;;;;;4213792;28;20063;-43
2021/03/01 05:54:13;;;;;;;0.65;0.65;;;16.20;63.50;;;;;;4212981;28;19920;-49
2021/03/01 05:56:35;;;;;;;0.03;0.03;;;16.20;63.40;;;;;;4213128;28;20059;-44
2021/03/01 05:58:57;;;;;;;0.98;0.47;;;16.20;63.40;;;;;;4212709;28;20044;-47
2021/03/01 06:01:18;;;;;;;4.57;0.73;;;16.20;63.60;;;;;;4213073;28;20048;-46
2021/03/01 06:03:42;;;;;;;0.25;0.25;;;16.20;63.70;;;;;;4213045;28;20052;-45
2021/03/01 06:06:05;;;;;;;0.10;0.10;;;16.10;63.70;;;;;;4212774;28;20048;-44
2021/03/01 06:08:27;;;;;;;0.00;0.00;;;16.10;63.80;;;;;;4212764;28;20052;-48
2021/03/01 06:10:47;;;;;;;0.00;0.00;;;16.00;64.00;;;;;;4212792;28;20062;-46
2021/03/01 06:13:10;;;;;;;0.00;0.00;;;16.00;64.20;;;;;;4201035;28;20100;-46
2021/03/01 06:15:36;;;;;;;0.10;0.10;;;15.90;64.40;;;;;;4212988;28;20472;-45
2021/03/01 06:18:08;;;;;;;0.17;0.17;;;15.90;64.90;;;;;;4212232;28;20059;-44
2021/03/01 06:20:29;;;;;;;0.38;0.38;;;16.00;65.50;;;;;;4194953;28;20422;-46
2021/03/01 06:22:50;;;;;;;0.85;0.40;;;16.20;64.80;;;;;;4206033;28;20056;-44
2021/03/01 06:25:15;;;;;;;0.20;0.20;;;16.20;64.40;;;;;;4212554;28;20052;-45
2021/03/01 06:27:53;;;;;;;0.00;0.00;;;16.20;64.30;;;;;;4196087;28;20562;-47
2021/03/01 06:30:15;;;;;;;0.45;0.45;;;16.10;64.30;;;;;;4195854;28;20495;-44
2021/03/01 06:32:40;;;;;;;0.10;0.10;;;16.20;64.20;;;;;;4195921;28;20106;-48
2021/03/01 06:35:03;;;;;;;0.98;0.73;;;16.40;63.70;;;;;;4195619;28;20049;-44
2021/03/01 06:37:24;;;;;;;0.10;0.10;;;16.50;63.40;;;;;;4195813;28;20048;-44
2021/03/01 06:39:46;;;;;;;0.10;0.10;;;16.50;63.10;;;;;;4210264;28;20050;-44
2021/03/01 06:42:24;;;;;;;0.10;0.10;;;16.60;63.30;;;;;;4212560;28;20058;-45
2021/03/01 06:44:46;;;;;;;0.10;0.10;;;16.50;63.40;;;;;;4211460;28;20056;-45
2021/03/01 06:47:07;;;;;;;1.45;1.38;;;16.50;63.70;;;;;;4212430;28;20109;-44
2021/03/01 06:49:35;;;;;;;0.00;0.00;;;16.40;64.10;;;;;;4212330;28;20052;-44
2021/03/01 06:51:56;;;;;;;0.10;0.10;;;16.30;64.30;;;;;;4212327;28;20109;-44
2021/03/01 06:54:24;;;;;;;0.43;0.43;;;16.20;64.60;;;;;;4212015;28;20480;-45
2021/03/01 06:56:45;;;;;;;0.35;0.35;;;16.10;65.00;;;;;;4212347;28;20736;-47
2021/03/01 06:59:13;;;;;;;2.95;1.33;;;16.00;65.10;;;;;;4211898;28;20066;-45
2021/03/01 07:01:43;;;;;;;0.00;0.00;;;16.00;65.40;;;;;;4212327;28;20140;-44
2021/03/01 07:04:06;;;;;;;0.00;0.00;;;16.00;65.20;;;;;;4212501;28;20052;-43
2021/03/01 07:06:35;;;;;;;0.00;0.00;;;16.10;65.70;;;;;;4212348;28;20083;-47
2021/03/01 07:08:56;;;;;;;0.10;0.10;;;16.10;64.60;;;;;;4212192;28;20052;-48
2021/03/01 07:11:22;;;;;;;5.22;0.75;;;16.10;64.70;;;;;;4212264;28;20048;-45
2021/03/01 07:13:46;;;;;;;0.43;0.43;;;16.10;64.60;;;;;;4212309;28;20197;-43
2021/03/01 07:16:07;;;;;;;0.00;0.00;;;16.10;64.60;;;;;;4212472;28;20044;-45
2021/03/01 07:18:29;;;;;;;0.15;0.15;;;16.00;64.60;;;;;;4211607;28;20071;-44
2021/03/01 07:20:51;;;;;;;6.50;2.22;;;16.00;65.00;;;;;;4195615;28;20135;-43
2021/03/01 07:23:12;;;;;;;0.32;0.32;;;16.10;65.00;;;;;;4198845;28;20055;-44
2021/03/01 07:25:34;;;;;;;0.20;0.20;;;16.10;64.50;;;;;;4212181;28;20075;-43
2021/03/01 07:27:55;;;;;;;0.10;0.10;;;16.20;64.40;;;;;;4212246;28;20561;-44
2021/03/01 07:30:16;;;;;;;;;;;16.10;64.40;;;;;;4212130;28;20098;-45
2021/03/01 07:32:39;;;;;;;0.55;0.22;;;16.10;64.50;;;;;;4212053;28;19924;-44
2021/03/01 07:35:01;;;;;;;0.00;0.00;;;16.00;64.70;;;;;;4212010;28;20056;-45
2021/03/01 07:37:23;;;;;;;0.20;0.20;;;16.00;65.00;;;;;;4212008;28;20048;-44
2021/03/01 07:39:45;;;;;;;0.25;0.25;;;15.90;65.10;;;;;;4212042;28;20055;-43
2021/03/01 07:42:07;;;;;;;0.00;0.00;;;15.80;65.50;;;;;;4211868;28;20551;-45
2021/03/01 07:44:29;;;;;;;9.32;2.55;;;15.80;65.70;;;;;;4195268;28;20049;-46
2021/03/01 07:46:51;;;;;;;0.00;0.00;;;15.70;65.90;;;;;;4200558;28;20745;-43
2021/03/01 07:49:13;;;;;;;0.00;0.00;;;15.60;66.30;;;;;;4208005;28;20082;-44
2021/03/01 07:51:42;;;;;;;0.00;0.00;;;15.60;66.30;;;;;;4215101;28;20132;-44
2021/03/01 07:54:05;;;;;;;0.40;0.40;;;15.70;65.90;;;;;;4214724;28;20056;-44
2021/03/01 07:56:48;;;;;;;0.10;0.10;;;15.80;65.80;;;;;;4215163;28;20079;-43
2021/03/01 07:59:11;;;;;;;0.15;0.15;;;15.80;65.50;;;;;;4215016;28;20048;-43
2021/03/01 08:01:32;;;;;;;0.57;0.57;;;15.80;65.60;;;;;;4215016;28;20056;-45
2021/03/01 08:03:54;;;;;;;0.10;0.10;;;15.80;65.50;;;;;;4214954;28;20113;-52
2021/03/01 08:06:15;;;;;;;0.00;0.00;;;15.80;66.20;;;;;;4214943;28;20490;-44
2021/03/01 08:08:43;;;;;;;2.92;0.73;;;15.80;66.50;;;;;;4214542;28;20356;-45
2021/03/01 08:11:04;;;;;;;0.00;0.00;;;15.70;66.40;;;;;;4214703;28;20048;-44
2021/03/01 08:13:31;;;;;;;0.00;0.00;;;15.60;66.80;;;;;;4214761;28;20052;-48
2021/03/01 08:15:53;;;;;;;0.22;0.13;;;15.60;66.90;;;;;;4210636;28;20048;-45
2021/03/01 08:18:14;;;;;;;1.35;0.93;;;15.50;67.30;;;;;;4200880;28;20130;-44
2021/03/01 08:20:40;;;;;;;0.00;0.00;;;15.50;67.70;;;;;;4211404;28;20113;-45
2021/03/01 08:23:15;;;;;;;0.20;0.20;;;15.60;67.30;;;;;;4214625;28;20055;-44
2021/03/01 08:25:50;;;;;;;0.00;0.00;;;15.80;66.50;;;;;;4214651;28;20395;-44
2021/03/01 08:28:50;;;;;;;0.00;0.00;;;15.90;66.00;;;;;;4214601;28;20056;-44
2021/03/01 08:31:35;;;;;;;0.10;0.10;;;16.00;65.80;;;;;;4214474;28;20060;-44
2021/03/01 08:34:28;;;;;;;0.00;0.00;;;16.00;65.60;;;;;;4214432;28;20056;-45
2021/03/01 08:36:49;;;;;;;0.95;0.88;;;15.90;65.90;;;;;;4214029;28;20055;-46
2021/03/01 08:39:10;;;;;;;0.00;0.00;;;15.80;65.70;;;;;;4197761;28;20056;-45
2021/03/01 08:41:44;;;;;;;0.00;0.00;;;15.80;66.00;;;;;;4200499;28;20047;-45
2021/03/01 08:44:19;;;;;;;0.00;0.00;;;15.80;65.70;;;;;;4214310;28;20513;-45
2021/03/01 08:46:40;;;;;;;0.00;0.00;;;15.90;65.70;;;;;;4214350;28;20506;-45
2021/03/01 08:49:02;;;;;;;;;;;15.90;65.80;;;;;;4214738;28;20108;-46
2021/03/01 08:51:23;;;;;;;0.00;0.00;;;15.90;65.70;;;;;;4214519;28;19939;-48
2021/03/01 08:53:45;;;;;;;0.52;0.52;;;15.90;65.60;;;;;;4214127;28;20157;-49
2021/03/01 08:56:06;;;;;;;0.93;0.93;;;16.00;65.30;;;;;;4214213;28;20056;-48
2021/03/01 08:58:30;;;;;;;0.30;0.30;;;16.00;65.40;;;;;;4214085;28;20044;-47
2021/03/01 09:00:53;;;;;;;0.30;0.30;;;16.00;65.40;;;;;;4214061;28;20083;-53
2021/03/01 09:03:21;;;;;;;0.00;0.00;;;16.00;65.40;;;;;;4214091;28;20047;-40
2021/03/01 09:05:45;;;;;;;0.00;0.00;;;16.20;64.70;;;;;;4213965;28;20474;-45
2021/03/01 09:08:10;;;;;;;0.22;0.22;;;16.20;64.20;;;;;;4213632;28;20748;-51
2021/03/01 09:10:35;;;;;;;0.22;0.22;;;16.30;64.00;;;;;;4213959;28;20059;-44
2021/03/01 09:12:57;;;;;;;0.25;0.25;;;16.30;64.00;;;;;;4213882;28;20478;-46
2021/03/01 09:15:20;;;;;;;;;;;16.30;64.00;;;;;;4214227;28;20563;-48
2021/03/01 09:17:42;;;;;;;0.00;0.00;;;16.30;64.00;;;;;;4213695;28;19927;-46
2021/03/01 09:20:05;;;;;;;0.10;0.10;;;16.30;64.00;;;;;;4213700;28;20080;-45
2021/03/01 09:22:43;;;;;;;0.00;0.00;;;16.20;64.10;;;;;;4213672;28;20174;-43
2021/03/01 09:25:24;;;;;;;0.00;0.00;;;16.10;64.30;;;;;;4213721;28;20075;-44
2021/03/01 09:27:47;;;;;;;0.00;0.00;;;16.10;64.50;;;;;;4213233;28;20138;-44
2021/03/01 09:30:19;;;;;;;0.00;0.00;;;16.20;64.40;;;;;;4213090;28;20051;-43
2021/03/01 09:32:40;;;;;;;0.00;0.00;;;16.20;64.10;;;;;;4212318;28;20048;-44
2021/03/01 09:35:18;;;;;;;0.00;0.00;;;16.20;64.10;;;;;;4213570;28;20418;-43
2021/03/01 09:37:53;;;;;;;0.10;0.10;;;16.20;64.10;;;;;;4196642;28;20560;-43
2021/03/01 09:40:17;;;;;;;0.10;0.10;;;16.20;63.90;;;;;;4196664;28;20131;-43
2021/03/01 09:42:40;;;;;;;1.15;1.15;;;16.40;63.60;;;;;;4196553;28;20045;-44
2021/03/01 09:45:04;;;;;;;0.05;0.05;;;16.40;63.20;;;;;;4196612;28;20056;-44
2021/03/01 09:47:25;;;;;;;0.77;0.77;;;16.40;63.30;;;;;;4195510;28;20052;-44
2021/03/01 09:49:49;;;;;;;0.00;0.00;;;16.30;63.30;;;;;;4196507;28;20056;-44
2021/03/01 09:52:12;;;;;;;0.10;0.10;;;16.20;63.70;;;;;;4196520;28;20422;-45
2021/03/01 09:54:39;;;;;;;0.10;0.10;;;16.20;64.00;;;;;;4196312;28;20590;-45
2021/03/01 09:57:04;;;;;;;0.35;0.35;;;16.20;63.80;;;;;;4196475;28;20494;-43
2021/03/01 09:59:32;;;;;;;0.20;0.20;;;16.30;64.70;;;;;;4196414;28;20474;-43
2021/03/01 10:02:06;;;;;;;0.00;0.00;;;16.30;63.50;;;;;;4196312;28;20059;-44
2021/03/01 10:04:27;;;;;;;0.00;0.00;;;16.20;63.60;;;;;;4198102;28;20052;-46
2021/03/01 10:07:20;;;;;;;0.00;0.00;;;16.10;63.70;;;;;;4212938;28;20493;-44
2021/03/01 10:09:41;;;;;;;0.00;0.00;;;16.10;63.70;;;;;;4212252;28;20425;-46
2021/03/01 10:12:02;;;;;;;0.00;0.00;;;16.10;63.70;;;;;;4212870;28;20048;-44
2021/03/01 10:14:30;;;;;;;0.45;0.45;;;16.10;63.80;;;;;;4212694;28;20097;-45
2021/03/01 10:16:51;;;;;;;0.10;0.10;;;16.20;63.70;;;;;;4212471;28;20056;-44
2021/03/01 10:19:13;;;;;;;0.28;0.28;;;16.10;63.70;;;;;;4212658;28;20090;-45
2021/03/01 10:21:34;;;;;;;0.05;0.05;;;16.20;64.00;;;;;;4212805;28;20059;-49
2021/03/01 10:24:04;;;;;;;0.98;0.95;;;16.10;64.00;;;;;;4212814;28;20524;-48
2021/03/01 10:26:28;;;;;;;0.00;0.00;;;16.10;64.20;;;;;;4212895;28;20056;-50
2021/03/01 10:28:54;;;;;;;0.38;0.38;;;16.00;64.10;;;;;;4212628;28;20048;-44
2021/03/01 10:31:17;;;;;;;7.65;0.65;;;16.00;64.50;;;;;;4212482;28;20098;-44
2021/03/01 10:33:56;;;;;;;0.10;0.10;;;16.00;64.90;;;;;;4212234;28;20482;-44
2021/03/01 10:36:17;;;;;;;0.00;0.00;;;16.00;64.60;;;;;;4195795;28;20071;-44
2021/03/01 10:39:07;;;;;;;2.45;1.65;;;16.00;64.40;;;;;;4211943;28;20051;-46
2021/03/01 10:41:32;;;;;;;0.00;0.00;;;16.00;64.70;;;;;;4160552;28;20076;-45
2021/03/01 10:43:54;;;;;;;0.00;0.00;;;15.90;64.60;;;;;;4195682;28;20484;-46
2021/03/01 10:46:31;;;;;;;0.65;0.65;;;15.90;65.00;;;;;;4199079;28;20093;-44
2021/03/01 10:48:53;;;;;;;0.00;0.00;;;16.00;65.00;;;;;;4204192;28;20502;-44
2021/03/01 10:51:14;;;;;;;0.25;0.25;;;16.10;64.30;;;;;;4212520;28;20059;-45
2021/03/01 10:53:35;;;;;;;0.00;0.00;;;16.20;64.00;;;;;;4212349;28;20501;-44
2021/03/01 10:55:57;;;;;;;0.00;0.00;;;16.20;63.90;;;;;;4212528;28;20121;-44
2021/03/01 10:58:18;;;;;;;0.00;0.00;;;16.20;64.10;;;;;;4212449;28;20055;-43
2021/03/01 11:00:38;;;;;;;0.20;0.20;;;16.20;64.30;;;;;;4212302;28;20052;-44
2021/03/01 11:03:00;;;;;;;0.00;0.00;;;16.20;65.30;;;;;;4212292;28;20418;-43
2021/03/01 11:05:21;;;;;;;0.10;0.10;;;16.20;64.40;;;;;;4212263;28;20048;-44
2021/03/01 11:07:42;;;;;;;0.00;0.00;;;16.20;64.50;;;;;;4212148;28;20121;-46
2021/03/01 11:10:04;;;;;;;0.00;0.00;;;16.10;64.50;;;;;;4211567;28;20048;-44
2021/03/01 11:12:26;;;;;;;0.00;0.00;;;16.00;64.90;;;;;;4195596;28;20061;-43
2021/03/01 11:14:47;;;;;;;0.00;0.00;;;16.00;64.90;;;;;;4196622;28;20514;-43
2021/03/01 11:17:08;;;;;;;;;;;16.00;64.90;;;;;;4210883;28;20414;-42
2021/03/01 11:19:29;;;;;;;0.30;0.30;;;16.10;65.20;;;;;;4211567;28;19920;-44
2021/03/01 11:21:51;;;;;;;5.10;2.03;;;16.00;65.70;;;;;;4210832;28;20044;-44
2021/03/01 11:24:14;;;;;;;0.00;0.00;;;16.00;65.90;;;;;;4214722;28;20417;-45
2021/03/01 11:26:35;;;;;;;0.00;0.00;;;16.00;66.10;;;;;;4209121;28;20075;-44
2021/03/01 11:28:57;;;;;;;;;;;15.90;66.00;;;;;;4215877;28;20052;-44
2021/03/01 11:31:18;;;;;;;;;;;15.90;66.20;;;;;;4215990;28;19924;-44
2021/03/01 11:33:39;;;;;;;;;;;15.90;66.10;;;;;;4215856;28;19920;-44
2021/03/01 11:36:01;;;;;;;;;;;16.00;65.80;;;;;;4215513;28;20374;-44
2021/03/01 11:38:34;;;;;;;;;;;16.10;66.30;;;;;;4215783;28;19920;-44
2021/03/01 11:40:55;;;;;;;;;;;16.10;65.60;;;;;;4215468;28;19942;-44
2021/03/01 11:43:16;;;;;;;;;;;16.10;65.30;;;;;;4216057;28;19924;-44
2021/03/01 11:45:37;;;;;;;;;;;16.10;65.50;;;;;;4215430;28;19920;-45
2021/03/01 11:47:58;;;;;;;;;;;16.10;65.60;;;;;;4215610;28;19924;-46
2021/03/01 11:50:20;;;;;;;;;;;16.10;65.40;;;;;;4212952;28;19931;-45
2021/03/01 11:52:41;;;;;;;;;;;16.10;65.50;;;;;;4215548;28;19924;-44
2021/03/01 11:55:03;;;;;;;;;;;16.00;65.40;;;;;;4215091;28;19927;-47
2021/03/01 11:57:25;;;;;;;;;;;16.00;65.50;;;;;;4215148;28;20357;-45
2021/03/01 11:59:50;;;;;;;;;;;16.00;65.90;;;;;;4214995;28;20363;-45
2021/03/01 12:02:12;;;;;;;;;;;15.90;65.40;;;;;;4215493;28;19977;-45
2021/03/01 12:04:33;;;;;;;;;;;15.90;65.60;;;;;;4215126;28;19932;-45
2021/03/01 12:06:54;;;;;;;;;;;15.90;65.80;;;;;;4215205;28;19952;-46
2021/03/01 12:09:15;;;;;;;;;;;15.80;65.60;;;;;;4215394;28;19963;-45
2021/03/01 12:11:36;;;;;;;;;;;15.80;65.90;;;;;;4214877;28;19942;-46
2021/03/01 12:13:57;;;;;;;;;;;15.80;66.10;;;;;;4215287;28;20373;-45
2021/03/01 12:16:20;;;;;;;;;;;15.70;66.10;;;;;;4215210;28;19928;-44
2021/03/01 12:18:42;;;;;;;;;;;15.60;66.00;;;;;;4215107;28;20022;-44
2021/03/01 12:21:02;;;;;;;;;;;15.60;66.50;;;;;;4214751;28;19932;-47
2021/03/01 12:23:25;;;;;;;;;;;15.50;66.60;;;;;;4214856;28;20012;-50
2021/03/01 12:25:46;;;;;;;;;;;15.50;66.70;;;;;;4214984;28;19924;-46
2021/03/01 12:28:08;;;;;;;;;;;15.40;66.80;;;;;;4215158;28;19989;-44
2021/03/01 12:30:29;;;;;;;;;;;15.40;67.00;;;;;;4214965;28;19927;-43
2021/03/01 12:32:54;;;;;;;;;;;15.40;67.40;;;;;;4214833;28;19924;-45
2021/03/01 12:35:16;;;;;;;;;;;15.30;67.30;;;;;;4215069;28;20026;-44
2021/03/01 12:37:38;;;;;;;;;;;15.20;68.00;;;;;;4215060;28;20036;-44
2021/03/01 12:39:59;;;;;;;;;;;15.20;68.20;;;;;;4214891;28;20385;-43